sensor_id;sensor_type;location;lat;lon;timestamp;P1;durP1;ratioP1;P2;durP2;ratioP2
5167;SDS011;2603;48.918;8.980;2023-07-02T00:02:02;10.70;;;3.70;;
5167;SDS011;2603;48.918;8.980;2023-07-02T00:04:29;6.00;;;2.70;;
5167;SDS011;2603;48.918;8.980;2023-07-02T00:06:57;7.03;;;3.83;;
5167;SDS011;2603;48.918;8.980;2023-07-02T00:09:24;5.10;;;3.13;;
5167;SDS011;2603;48.918;8.980;2023-07-02T00:11:50;4.70;;;3.17;;
5167;SDS011;2603;48.918;8.980;2023-07-02T00:14:17;6.73;;;2.67;;
5167;SDS011;2603;48.918;8.980;2023-07-02T00:16:44;3.70;;;3.03;;
5167;SDS011;2603;48.918;8.980;2023-07-02T00:19:11;12.80;;;4.00;;
5167;SDS011;2603;48.918;8.980;2023-07-02T00:21:39;8.23;;;2.90;;
5167;SDS011;2603;48.918;8.980;2023-07-02T00:24:08;10.80;;;2.87;;
5167;SDS011;2603;48.918;8.980;2023-07-02T00:26:36;4.10;;;3.03;;
5167;SDS011;2603;48.918;8.980;2023-07-02T00:29:03;6.10;;;3.20;;
5167;SDS011;2603;48.918;8.980;2023-07-02T00:31:32;7.03;;;2.93;;
5167;SDS011;2603;48.918;8.980;2023-07-02T00:33:59;7.33;;;3.27;;
5167;SDS011;2603;48.918;8.980;2023-07-02T00:36:26;6.10;;;3.40;;
5167;SDS011;2603;48.918;8.980;2023-07-02T00:38:53;7.50;;;3.20;;
5167;SDS011;2603;48.918;8.980;2023-07-02T00:41:23;6.87;;;3.27;;
5167;SDS011;2603;48.918;8.980;2023-07-02T00:43:50;7.00;;;2.80;;
5167;SDS011;2603;48.918;8.980;2023-07-02T00:46:20;4.10;;;3.10;;
5167;SDS011;2603;48.918;8.980;2023-07-02T00:48:47;4.43;;;2.90;;
5167;SDS011;2603;48.918;8.980;2023-07-02T00:51:16;10.10;;;3.10;;
5167;SDS011;2603;48.918;8.980;2023-07-02T00:53:43;4.33;;;3.20;;
5167;SDS011;2603;48.918;8.980;2023-07-02T00:56:10;3.87;;;2.63;;
5167;SDS011;2603;48.918;8.980;2023-07-02T00:58:40;5.57;;;2.60;;
5167;SDS011;2603;48.918;8.980;2023-07-02T01:01:15;5.13;;;3.07;;
5167;SDS011;2603;48.918;8.980;2023-07-02T01:03:51;6.20;;;2.83;;
5167;SDS011;2603;48.918;8.980;2023-07-02T01:06:20;3.70;;;2.70;;
5167;SDS011;2603;48.918;8.980;2023-07-02T01:08:50;5.27;;;3.67;;
5167;SDS011;2603;48.918;8.980;2023-07-02T01:11:18;3.90;;;2.90;;
5167;SDS011;2603;48.918;8.980;2023-07-02T01:13:47;3.97;;;2.60;;
5167;SDS011;2603;48.918;8.980;2023-07-02T01:16:14;5.97;;;2.90;;
5167;SDS011;2603;48.918;8.980;2023-07-02T01:18:41;5.53;;;3.07;;
5167;SDS011;2603;48.918;8.980;2023-07-02T01:21:10;4.13;;;2.80;;
5167;SDS011;2603;48.918;8.980;2023-07-02T01:23:36;5.67;;;3.00;;
5167;SDS011;2603;48.918;8.980;2023-07-02T01:26:03;4.17;;;2.57;;
5167;SDS011;2603;48.918;8.980;2023-07-02T01:28:34;5.03;;;2.83;;
5167;SDS011;2603;48.918;8.980;2023-07-02T01:31:02;6.23;;;2.40;;
5167;SDS011;2603;48.918;8.980;2023-07-02T01:33:32;5.67;;;3.40;;
5167;SDS011;2603;48.918;8.980;2023-07-02T01:35:59;4.20;;;3.07;;
5167;SDS011;2603;48.918;8.980;2023-07-02T01:38:27;3.80;;;2.70;;
5167;SDS011;2603;48.918;8.980;2023-07-02T01:40:54;5.60;;;3.13;;
5167;SDS011;2603;48.918;8.980;2023-07-02T01:43:21;3.67;;;2.27;;
5167;SDS011;2603;48.918;8.980;2023-07-02T01:45:48;7.13;;;3.17;;
5167;SDS011;2603;48.918;8.980;2023-07-02T01:48:14;4.93;;;3.27;;
5167;SDS011;2603;48.918;8.980;2023-07-02T01:50:41;5.20;;;3.20;;
5167;SDS011;2603;48.918;8.980;2023-07-02T01:53:07;6.00;;;4.10;;
5167;SDS011;2603;48.918;8.980;2023-07-02T01:55:35;4.97;;;3.20;;
5167;SDS011;2603;48.918;8.980;2023-07-02T01:58:02;5.67;;;2.80;;
5167;SDS011;2603;48.918;8.980;2023-07-02T02:00:29;5.83;;;3.23;;
5167;SDS011;2603;48.918;8.980;2023-07-02T02:02:56;6.77;;;3.77;;
5167;SDS011;2603;48.918;8.980;2023-07-02T02:05:22;11.87;;;4.37;;
5167;SDS011;2603;48.918;8.980;2023-07-02T02:07:49;7.73;;;3.00;;
5167;SDS011;2603;48.918;8.980;2023-07-02T02:10:16;5.60;;;2.90;;
5167;SDS011;2603;48.918;8.980;2023-07-02T02:12:45;7.50;;;2.80;;
5167;SDS011;2603;48.918;8.980;2023-07-02T02:15:13;6.10;;;3.20;;
5167;SDS011;2603;48.918;8.980;2023-07-02T02:17:39;8.40;;;3.00;;
5167;SDS011;2603;48.918;8.980;2023-07-02T02:20:07;5.33;;;3.37;;
5167;SDS011;2603;48.918;8.980;2023-07-02T02:22:35;4.50;;;3.20;;
5167;SDS011;2603;48.918;8.980;2023-07-02T02:25:02;4.13;;;3.20;;
5167;SDS011;2603;48.918;8.980;2023-07-02T02:27:29;9.70;;;4.23;;
5167;SDS011;2603;48.918;8.980;2023-07-02T02:29:57;4.40;;;2.97;;
5167;SDS011;2603;48.918;8.980;2023-07-02T02:32:23;8.90;;;4.07;;
5167;SDS011;2603;48.918;8.980;2023-07-02T02:34:50;10.33;;;3.47;;
5167;SDS011;2603;48.918;8.980;2023-07-02T02:37:18;8.70;;;3.40;;
5167;SDS011;2603;48.918;8.980;2023-07-02T02:39:44;9.30;;;3.00;;
5167;SDS011;2603;48.918;8.980;2023-07-02T02:42:12;6.80;;;3.57;;
5167;SDS011;2603;48.918;8.980;2023-07-02T02:44:39;7.17;;;3.17;;
5167;SDS011;2603;48.918;8.980;2023-07-02T02:47:07;6.30;;;3.17;;
5167;SDS011;2603;48.918;8.980;2023-07-02T02:49:36;4.97;;;3.33;;
5167;SDS011;2603;48.918;8.980;2023-07-02T02:52:04;5.80;;;3.23;;
5167;SDS011;2603;48.918;8.980;2023-07-02T02:54:31;17.17;;;3.93;;
5167;SDS011;2603;48.918;8.980;2023-07-02T02:56:58;10.53;;;3.43;;
5167;SDS011;2603;48.918;8.980;2023-07-02T02:59:25;5.37;;;2.83;;
5167;SDS011;2603;48.918;8.980;2023-07-02T03:01:52;8.10;;;2.90;;
5167;SDS011;2603;48.918;8.980;2023-07-02T03:04:20;7.40;;;3.23;;
5167;SDS011;2603;48.918;8.980;2023-07-02T03:06:49;11.77;;;4.00;;
5167;SDS011;2603;48.918;8.980;2023-07-02T03:09:15;7.73;;;3.53;;
5167;SDS011;2603;48.918;8.980;2023-07-02T03:11:43;10.20;;;3.40;;
5167;SDS011;2603;48.918;8.980;2023-07-02T03:14:09;9.60;;;3.40;;
5167;SDS011;2603;48.918;8.980;2023-07-02T03:16:36;17.87;;;4.20;;
5167;SDS011;2603;48.918;8.980;2023-07-02T03:19:03;6.20;;;3.40;;
5167;SDS011;2603;48.918;8.980;2023-07-02T03:21:31;6.33;;;2.80;;
5167;SDS011;2603;48.918;8.980;2023-07-02T03:23:57;8.17;;;3.50;;
5167;SDS011;2603;48.918;8.980;2023-07-02T03:26:24;7.80;;;2.60;;
5167;SDS011;2603;48.918;8.980;2023-07-02T03:28:50;11.40;;;3.90;;
5167;SDS011;2603;48.918;8.980;2023-07-02T03:31:18;5.77;;;3.47;;
5167;SDS011;2603;48.918;8.980;2023-07-02T03:33:44;10.30;;;3.20;;
5167;SDS011;2603;48.918;8.980;2023-07-02T03:36:11;5.60;;;3.00;;
5167;SDS011;2603;48.918;8.980;2023-07-02T03:38:39;9.40;;;3.57;;
5167;SDS011;2603;48.918;8.980;2023-07-02T03:41:06;14.73;;;3.80;;
5167;SDS011;2603;48.918;8.980;2023-07-02T03:43:32;6.93;;;3.03;;
5167;SDS011;2603;48.918;8.980;2023-07-02T03:45:58;7.90;;;3.30;;
5167;SDS011;2603;48.918;8.980;2023-07-02T03:48:25;8.37;;;3.90;;
5167;SDS011;2603;48.918;8.980;2023-07-02T03:50:53;4.90;;;3.23;;
5167;SDS011;2603;48.918;8.980;2023-07-02T03:53:19;10.90;;;3.70;;
5167;SDS011;2603;48.918;8.980;2023-07-02T03:55:47;11.33;;;3.33;;
5167;SDS011;2603;48.918;8.980;2023-07-02T03:58:14;6.93;;;4.37;;
5167;SDS011;2603;48.918;8.980;2023-07-02T04:00:40;13.83;;;4.10;;
5167;SDS011;2603;48.918;8.980;2023-07-02T04:03:09;10.40;;;4.33;;
5167;SDS011;2603;48.918;8.980;2023-07-02T04:05:35;8.10;;;4.20;;
5167;SDS011;2603;48.918;8.980;2023-07-02T04:08:02;12.43;;;3.50;;
5167;SDS011;2603;48.918;8.980;2023-07-02T04:10:30;14.13;;;3.37;;
5167;SDS011;2603;48.918;8.980;2023-07-02T04:12:59;6.43;;;2.90;;
5167;SDS011;2603;48.918;8.980;2023-07-02T04:15:25;8.20;;;3.97;;
5167;SDS011;2603;48.918;8.980;2023-07-02T04:17:52;10.87;;;3.40;;
5167;SDS011;2603;48.918;8.980;2023-07-02T04:20:19;5.67;;;3.70;;
5167;SDS011;2603;48.918;8.980;2023-07-02T04:22:46;10.20;;;3.63;;
5167;SDS011;2603;48.918;8.980;2023-07-02T04:25:13;7.90;;;2.83;;
5167;SDS011;2603;48.918;8.980;2023-07-02T04:27:41;15.03;;;3.57;;
5167;SDS011;2603;48.918;8.980;2023-07-02T04:30:09;13.27;;;4.73;;
5167;SDS011;2603;48.918;8.980;2023-07-02T04:32:38;7.07;;;3.00;;
5167;SDS011;2603;48.918;8.980;2023-07-02T04:35:05;7.63;;;3.00;;
5167;SDS011;2603;48.918;8.980;2023-07-02T04:37:34;14.33;;;3.47;;
5167;SDS011;2603;48.918;8.980;2023-07-02T04:40:02;4.67;;;2.50;;
5167;SDS011;2603;48.918;8.980;2023-07-02T04:42:31;7.90;;;3.27;;
5167;SDS011;2603;48.918;8.980;2023-07-02T04:45:02;6.40;;;3.00;;
5167;SDS011;2603;48.918;8.980;2023-07-02T04:47:30;6.70;;;3.00;;
5167;SDS011;2603;48.918;8.980;2023-07-02T04:49:58;7.40;;;2.73;;
5167;SDS011;2603;48.918;8.980;2023-07-02T04:52:25;6.30;;;4.13;;
5167;SDS011;2603;48.918;8.980;2023-07-02T04:54:52;7.40;;;3.53;;
5167;SDS011;2603;48.918;8.980;2023-07-02T04:57:19;7.50;;;2.93;;
5167;SDS011;2603;48.918;8.980;2023-07-02T04:59:45;6.93;;;3.63;;
5167;SDS011;2603;48.918;8.980;2023-07-02T05:02:12;4.53;;;2.80;;
5167;SDS011;2603;48.918;8.980;2023-07-02T05:04:40;8.97;;;3.20;;
5167;SDS011;2603;48.918;8.980;2023-07-02T05:07:07;6.90;;;2.90;;
5167;SDS011;2603;48.918;8.980;2023-07-02T05:09:33;7.00;;;3.57;;
5167;SDS011;2603;48.918;8.980;2023-07-02T05:12:00;6.60;;;3.50;;
5167;SDS011;2603;48.918;8.980;2023-07-02T05:14:26;5.40;;;2.90;;
5167;SDS011;2603;48.918;8.980;2023-07-02T05:16:53;7.90;;;3.43;;
5167;SDS011;2603;48.918;8.980;2023-07-02T05:19:19;15.03;;;3.27;;
5167;SDS011;2603;48.918;8.980;2023-07-02T05:21:47;10.43;;;3.90;;
5167;SDS011;2603;48.918;8.980;2023-07-02T05:24:13;6.37;;;3.40;;
5167;SDS011;2603;48.918;8.980;2023-07-02T05:26:43;5.90;;;3.40;;
5167;SDS011;2603;48.918;8.980;2023-07-02T05:29:09;13.63;;;4.20;;
5167;SDS011;2603;48.918;8.980;2023-07-02T05:31:36;12.80;;;4.40;;
5167;SDS011;2603;48.918;8.980;2023-07-02T05:34:02;7.83;;;3.50;;
5167;SDS011;2603;48.918;8.980;2023-07-02T05:36:29;8.87;;;3.70;;
5167;SDS011;2603;48.918;8.980;2023-07-02T05:38:57;6.60;;;3.80;;
5167;SDS011;2603;48.918;8.980;2023-07-02T05:41:23;9.73;;;5.00;;
5167;SDS011;2603;48.918;8.980;2023-07-02T05:43:56;9.00;;;4.33;;
5167;SDS011;2603;48.918;8.980;2023-07-02T05:46:23;7.43;;;3.60;;
5167;SDS011;2603;48.918;8.980;2023-07-02T05:48:50;13.13;;;4.80;;
5167;SDS011;2603;48.918;8.980;2023-07-02T05:51:19;9.03;;;4.10;;
5167;SDS011;2603;48.918;8.980;2023-07-02T05:53:46;12.33;;;4.30;;
5167;SDS011;2603;48.918;8.980;2023-07-02T05:56:14;6.67;;;3.10;;
5167;SDS011;2603;48.918;8.980;2023-07-02T05:58:40;8.70;;;3.63;;
5167;SDS011;2603;48.918;8.980;2023-07-02T06:01:07;9.80;;;4.03;;
5167;SDS011;2603;48.918;8.980;2023-07-02T06:03:33;11.97;;;3.83;;
5167;SDS011;2603;48.918;8.980;2023-07-02T06:06:02;12.00;;;3.57;;
5167;SDS011;2603;48.918;8.980;2023-07-02T06:08:29;11.00;;;4.17;;
5167;SDS011;2603;48.918;8.980;2023-07-02T06:10:59;10.10;;;4.60;;
5167;SDS011;2603;48.918;8.980;2023-07-02T06:13:27;12.17;;;4.70;;
5167;SDS011;2603;48.918;8.980;2023-07-02T06:15:54;9.80;;;4.53;;
5167;SDS011;2603;48.918;8.980;2023-07-02T06:18:20;9.43;;;4.80;;
5167;SDS011;2603;48.918;8.980;2023-07-02T06:20:47;10.40;;;5.20;;
5167;SDS011;2603;48.918;8.980;2023-07-02T06:23:13;11.90;;;5.07;;
5167;SDS011;2603;48.918;8.980;2023-07-02T06:25:40;11.50;;;4.77;;
5167;SDS011;2603;48.918;8.980;2023-07-02T06:28:07;11.03;;;4.43;;
5167;SDS011;2603;48.918;8.980;2023-07-02T06:30:35;8.93;;;4.40;;
5167;SDS011;2603;48.918;8.980;2023-07-02T06:33:02;8.20;;;4.13;;
5167;SDS011;2603;48.918;8.980;2023-07-02T06:35:28;7.60;;;4.30;;
5167;SDS011;2603;48.918;8.980;2023-07-02T06:37:55;11.13;;;4.70;;
5167;SDS011;2603;48.918;8.980;2023-07-02T06:40:22;10.77;;;4.70;;
5167;SDS011;2603;48.918;8.980;2023-07-02T06:42:49;8.13;;;4.50;;
5167;SDS011;2603;48.918;8.980;2023-07-02T06:45:15;12.30;;;5.07;;
5167;SDS011;2603;48.918;8.980;2023-07-02T06:47:43;10.20;;;5.30;;
5167;SDS011;2603;48.918;8.980;2023-07-02T06:50:10;9.90;;;4.07;;
5167;SDS011;2603;48.918;8.980;2023-07-02T06:52:36;8.33;;;4.37;;
5167;SDS011;2603;48.918;8.980;2023-07-02T06:55:03;9.43;;;4.30;;
5167;SDS011;2603;48.918;8.980;2023-07-02T06:57:30;9.63;;;4.47;;
5167;SDS011;2603;48.918;8.980;2023-07-02T06:59:58;8.57;;;4.70;;
5167;SDS011;2603;48.918;8.980;2023-07-02T07:02:25;9.80;;;4.90;;
5167;SDS011;2603;48.918;8.980;2023-07-02T07:04:55;9.00;;;4.67;;
5167;SDS011;2603;48.918;8.980;2023-07-02T07:07:21;10.43;;;5.00;;
5167;SDS011;2603;48.918;8.980;2023-07-02T07:09:49;11.77;;;5.73;;
5167;SDS011;2603;48.918;8.980;2023-07-02T07:12:15;15.80;;;6.10;;
5167;SDS011;2603;48.918;8.980;2023-07-02T07:14:42;15.97;;;7.90;;
5167;SDS011;2603;48.918;8.980;2023-07-02T07:17:11;15.07;;;6.40;;
5167;SDS011;2603;48.918;8.980;2023-07-02T07:19:38;12.97;;;6.87;;
5167;SDS011;2603;48.918;8.980;2023-07-02T07:22:06;15.63;;;7.40;;
5167;SDS011;2603;48.918;8.980;2023-07-02T07:24:33;13.47;;;7.10;;
5167;SDS011;2603;48.918;8.980;2023-07-02T07:27:00;16.43;;;7.87;;
5167;SDS011;2603;48.918;8.980;2023-07-02T07:29:26;13.40;;;6.97;;
5167;SDS011;2603;48.918;8.980;2023-07-02T07:31:54;22.07;;;7.57;;
5167;SDS011;2603;48.918;8.980;2023-07-02T07:34:20;15.63;;;7.33;;
5167;SDS011;2603;48.918;8.980;2023-07-02T07:36:47;16.60;;;7.03;;
5167;SDS011;2603;48.918;8.980;2023-07-02T07:39:17;14.73;;;7.80;;
5167;SDS011;2603;48.918;8.980;2023-07-02T07:41:46;17.63;;;7.50;;
5167;SDS011;2603;48.918;8.980;2023-07-02T07:44:14;15.07;;;8.13;;
5167;SDS011;2603;48.918;8.980;2023-07-02T07:46:41;12.47;;;7.73;;
5167;SDS011;2603;48.918;8.980;2023-07-02T07:49:08;18.20;;;9.93;;
5167;SDS011;2603;48.918;8.980;2023-07-02T07:51:34;14.60;;;9.30;;
5167;SDS011;2603;48.918;8.980;2023-07-02T07:54:01;18.83;;;8.80;;
5167;SDS011;2603;48.918;8.980;2023-07-02T07:56:29;18.67;;;8.87;;
5167;SDS011;2603;48.918;8.980;2023-07-02T07:58:56;22.13;;;8.83;;
5167;SDS011;2603;48.918;8.980;2023-07-02T08:01:25;16.70;;;9.17;;
5167;SDS011;2603;48.918;8.980;2023-07-02T08:03:52;18.67;;;10.03;;
5167;SDS011;2603;48.918;8.980;2023-07-02T08:06:18;14.23;;;8.83;;
5167;SDS011;2603;48.918;8.980;2023-07-02T08:08:45;15.70;;;8.23;;
5167;SDS011;2603;48.918;8.980;2023-07-02T08:11:11;15.80;;;9.27;;
5167;SDS011;2603;48.918;8.980;2023-07-02T08:13:39;17.77;;;10.37;;
5167;SDS011;2603;48.918;8.980;2023-07-02T08:16:06;21.40;;;9.70;;
5167;SDS011;2603;48.918;8.980;2023-07-02T08:18:34;16.60;;;9.67;;
5167;SDS011;2603;48.918;8.980;2023-07-02T08:21:00;18.67;;;11.00;;
5167;SDS011;2603;48.918;8.980;2023-07-02T08:23:27;23.30;;;12.20;;
5167;SDS011;2603;48.918;8.980;2023-07-02T08:25:53;20.90;;;11.70;;
5167;SDS011;2603;48.918;8.980;2023-07-02T08:28:20;21.33;;;11.77;;
5167;SDS011;2603;48.918;8.980;2023-07-02T08:30:51;21.03;;;10.97;;
5167;SDS011;2603;48.918;8.980;2023-07-02T08:33:18;21.00;;;11.33;;
5167;SDS011;2603;48.918;8.980;2023-07-02T08:35:45;27.47;;;11.60;;
5167;SDS011;2603;48.918;8.980;2023-07-02T08:38:12;26.83;;;12.03;;
5167;SDS011;2603;48.918;8.980;2023-07-02T08:40:38;19.33;;;10.30;;
5167;SDS011;2603;48.918;8.980;2023-07-02T08:43:06;22.53;;;12.40;;
5167;SDS011;2603;48.918;8.980;2023-07-02T08:45:32;31.27;;;12.50;;
5167;SDS011;2603;48.918;8.980;2023-07-02T08:48:00;25.70;;;12.63;;
5167;SDS011;2603;48.918;8.980;2023-07-02T08:50:27;23.33;;;13.47;;
5167;SDS011;2603;48.918;8.980;2023-07-02T08:52:54;26.47;;;12.93;;
5167;SDS011;2603;48.918;8.980;2023-07-02T08:55:21;25.93;;;12.73;;
5167;SDS011;2603;48.918;8.980;2023-07-02T08:57:49;23.53;;;12.37;;
5167;SDS011;2603;48.918;8.980;2023-07-02T09:00:16;29.70;;;12.80;;
5167;SDS011;2603;48.918;8.980;2023-07-02T09:02:43;25.30;;;13.20;;
5167;SDS011;2603;48.918;8.980;2023-07-02T09:05:14;30.90;;;14.03;;
5167;SDS011;2603;48.918;8.980;2023-07-02T09:07:43;26.00;;;15.37;;
5167;SDS011;2603;48.918;8.980;2023-07-02T09:10:10;31.23;;;14.60;;
5167;SDS011;2603;48.918;8.980;2023-07-02T09:12:37;31.43;;;15.03;;
5167;SDS011;2603;48.918;8.980;2023-07-02T09:15:05;28.03;;;14.60;;
5167;SDS011;2603;48.918;8.980;2023-07-02T09:17:32;27.17;;;13.83;;
5167;SDS011;2603;48.918;8.980;2023-07-02T09:20:00;23.00;;;14.33;;
5167;SDS011;2603;48.918;8.980;2023-07-02T09:22:30;24.73;;;13.80;;
5167;SDS011;2603;48.918;8.980;2023-07-02T09:24:57;28.03;;;14.73;;
5167;SDS011;2603;48.918;8.980;2023-07-02T09:27:32;22.60;;;13.40;;
5167;SDS011;2603;48.918;8.980;2023-07-02T09:30:05;25.73;;;14.00;;
5167;SDS011;2603;48.918;8.980;2023-07-02T09:32:33;25.47;;;15.23;;
5167;SDS011;2603;48.918;8.980;2023-07-02T09:34:59;28.27;;;14.90;;
5167;SDS011;2603;48.918;8.980;2023-07-02T09:37:25;22.33;;;12.50;;
5167;SDS011;2603;48.918;8.980;2023-07-02T09:39:54;24.30;;;13.37;;
5167;SDS011;2603;48.918;8.980;2023-07-02T09:42:21;28.13;;;13.10;;
5167;SDS011;2603;48.918;8.980;2023-07-02T09:44:48;29.33;;;14.93;;
5167;SDS011;2603;48.918;8.980;2023-07-02T09:47:18;24.07;;;12.90;;
5167;SDS011;2603;48.918;8.980;2023-07-02T09:49:56;26.27;;;13.00;;
5167;SDS011;2603;48.918;8.980;2023-07-02T09:52:24;29.40;;;14.37;;
5167;SDS011;2603;48.918;8.980;2023-07-02T09:54:53;27.07;;;13.97;;
5167;SDS011;2603;48.918;8.980;2023-07-02T09:57:20;24.10;;;12.60;;
5167;SDS011;2603;48.918;8.980;2023-07-02T09:59:46;23.57;;;13.67;;
5167;SDS011;2603;48.918;8.980;2023-07-02T10:02:13;20.67;;;13.13;;
5167;SDS011;2603;48.918;8.980;2023-07-02T10:04:40;26.10;;;13.33;;
5167;SDS011;2603;48.918;8.980;2023-07-02T10:07:07;22.90;;;13.50;;
5167;SDS011;2603;48.918;8.980;2023-07-02T10:09:34;24.80;;;13.93;;
5167;SDS011;2603;48.918;8.980;2023-07-02T10:12:14;23.67;;;12.80;;
5167;SDS011;2603;48.918;8.980;2023-07-02T10:14:42;21.53;;;13.27;;
5167;SDS011;2603;48.918;8.980;2023-07-02T10:17:09;25.30;;;12.20;;
5167;SDS011;2603;48.918;8.980;2023-07-02T10:19:35;22.90;;;13.07;;
5167;SDS011;2603;48.918;8.980;2023-07-02T10:22:02;20.50;;;12.13;;
5167;SDS011;2603;48.918;8.980;2023-07-02T10:24:33;22.97;;;13.07;;
5167;SDS011;2603;48.918;8.980;2023-07-02T10:27:00;27.20;;;12.90;;
5167;SDS011;2603;48.918;8.980;2023-07-02T10:29:29;20.67;;;12.20;;
5167;SDS011;2603;48.918;8.980;2023-07-02T10:31:59;29.87;;;12.67;;
5167;SDS011;2603;48.918;8.980;2023-07-02T10:34:36;26.17;;;13.07;;
5167;SDS011;2603;48.918;8.980;2023-07-02T10:37:04;27.23;;;13.60;;
5167;SDS011;2603;48.918;8.980;2023-07-02T10:39:34;26.03;;;13.77;;
5167;SDS011;2603;48.918;8.980;2023-07-02T10:42:05;26.60;;;12.83;;
5167;SDS011;2603;48.918;8.980;2023-07-02T10:44:33;26.57;;;14.57;;
5167;SDS011;2603;48.918;8.980;2023-07-02T10:47:00;23.93;;;12.00;;
5167;SDS011;2603;48.918;8.980;2023-07-02T10:49:30;24.73;;;12.77;;
5167;SDS011;2603;48.918;8.980;2023-07-02T10:51:58;24.00;;;13.03;;
5167;SDS011;2603;48.918;8.980;2023-07-02T10:54:27;20.60;;;12.57;;
5167;SDS011;2603;48.918;8.980;2023-07-02T10:57:05;28.83;;;13.60;;
5167;SDS011;2603;48.918;8.980;2023-07-02T10:59:34;27.30;;;14.93;;
5167;SDS011;2603;48.918;8.980;2023-07-02T11:02:00;25.17;;;13.03;;
5167;SDS011;2603;48.918;8.980;2023-07-02T11:04:27;28.70;;;13.20;;
5167;SDS011;2603;48.918;8.980;2023-07-02T11:06:55;25.97;;;13.10;;
5167;SDS011;2603;48.918;8.980;2023-07-02T11:09:22;32.60;;;12.70;;
5167;SDS011;2603;48.918;8.980;2023-07-02T11:11:50;21.20;;;11.70;;
5167;SDS011;2603;48.918;8.980;2023-07-02T11:14:26;22.27;;;13.23;;
5167;SDS011;2603;48.918;8.980;2023-07-02T11:16:55;23.37;;;12.57;;
5167;SDS011;2603;48.918;8.980;2023-07-02T11:19:22;22.50;;;12.47;;
5167;SDS011;2603;48.918;8.980;2023-07-02T11:21:50;26.20;;;12.90;;
5167;SDS011;2603;48.918;8.980;2023-07-02T11:24:25;21.90;;;12.33;;
5167;SDS011;2603;48.918;8.980;2023-07-02T11:27:01;25.30;;;13.30;;
5167;SDS011;2603;48.918;8.980;2023-07-02T11:29:30;22.90;;;12.67;;
5167;SDS011;2603;48.918;8.980;2023-07-02T11:34:40;26.13;;;14.27;;
5167;SDS011;2603;48.918;8.980;2023-07-02T11:37:06;25.80;;;12.67;;
5167;SDS011;2603;48.918;8.980;2023-07-02T11:39:33;22.77;;;12.30;;
5167;SDS011;2603;48.918;8.980;2023-07-02T11:42:06;25.90;;;13.20;;
5167;SDS011;2603;48.918;8.980;2023-07-02T11:44:33;22.50;;;12.80;;
5167;SDS011;2603;48.918;8.980;2023-07-02T11:47:01;23.53;;;12.83;;
5167;SDS011;2603;48.918;8.980;2023-07-02T11:49:29;21.67;;;11.70;;
5167;SDS011;2603;48.918;8.980;2023-07-02T11:51:56;22.43;;;12.97;;
5167;SDS011;2603;48.918;8.980;2023-07-02T11:54:23;20.80;;;12.20;;
5167;SDS011;2603;48.918;8.980;2023-07-02T11:56:50;26.00;;;11.80;;
5167;SDS011;2603;48.918;8.980;2023-07-02T11:59:16;20.60;;;11.50;;
5167;SDS011;2603;48.918;8.980;2023-07-02T12:01:43;21.20;;;11.40;;
5167;SDS011;2603;48.918;8.980;2023-07-02T12:04:09;19.87;;;11.17;;
5167;SDS011;2603;48.918;8.980;2023-07-02T12:06:38;25.83;;;13.40;;
5167;SDS011;2603;48.918;8.980;2023-07-02T12:09:05;26.00;;;12.27;;
5167;SDS011;2603;48.918;8.980;2023-07-02T12:11:34;29.50;;;13.13;;
5167;SDS011;2603;48.918;8.980;2023-07-02T12:14:01;25.70;;;13.03;;
5167;SDS011;2603;48.918;8.980;2023-07-02T12:16:31;23.30;;;12.60;;
5167;SDS011;2603;48.918;8.980;2023-07-02T12:18:57;21.93;;;12.83;;
5167;SDS011;2603;48.918;8.980;2023-07-02T12:21:24;21.27;;;13.20;;
5167;SDS011;2603;48.918;8.980;2023-07-02T12:23:54;25.33;;;13.00;;
5167;SDS011;2603;48.918;8.980;2023-07-02T12:26:20;24.00;;;12.43;;
5167;SDS011;2603;48.918;8.980;2023-07-02T12:28:47;28.23;;;12.47;;
5167;SDS011;2603;48.918;8.980;2023-07-02T12:31:14;24.20;;;12.53;;
5167;SDS011;2603;48.918;8.980;2023-07-02T12:33:40;23.07;;;12.07;;
5167;SDS011;2603;48.918;8.980;2023-07-02T12:36:07;20.57;;;12.83;;
5167;SDS011;2603;48.918;8.980;2023-07-02T12:38:33;27.17;;;12.10;;
5167;SDS011;2603;48.918;8.980;2023-07-02T12:41:01;25.23;;;13.57;;
5167;SDS011;2603;48.918;8.980;2023-07-02T12:43:28;19.60;;;11.97;;
5167;SDS011;2603;48.918;8.980;2023-07-02T12:45:57;23.27;;;12.37;;
5167;SDS011;2603;48.918;8.980;2023-07-02T12:48:23;23.60;;;12.07;;
5167;SDS011;2603;48.918;8.980;2023-07-02T12:50:54;21.13;;;12.03;;
5167;SDS011;2603;48.918;8.980;2023-07-02T12:53:21;22.13;;;13.03;;
5167;SDS011;2603;48.918;8.980;2023-07-02T12:55:47;25.20;;;12.20;;
5167;SDS011;2603;48.918;8.980;2023-07-02T12:58:15;24.53;;;12.27;;
5167;SDS011;2603;48.918;8.980;2023-07-02T13:00:54;24.10;;;12.60;;
5167;SDS011;2603;48.918;8.980;2023-07-02T13:03:22;20.33;;;11.77;;
5167;SDS011;2603;48.918;8.980;2023-07-02T13:05:50;21.80;;;11.47;;
5167;SDS011;2603;48.918;8.980;2023-07-02T13:08:19;24.23;;;11.87;;
5167;SDS011;2603;48.918;8.980;2023-07-02T13:10:52;20.70;;;11.47;;
5167;SDS011;2603;48.918;8.980;2023-07-02T13:13:20;26.37;;;11.60;;
5167;SDS011;2603;48.918;8.980;2023-07-02T13:15:46;21.67;;;11.90;;
5167;SDS011;2603;48.918;8.980;2023-07-02T13:18:15;23.07;;;11.87;;
5167;SDS011;2603;48.918;8.980;2023-07-02T13:20:42;18.73;;;11.10;;
5167;SDS011;2603;48.918;8.980;2023-07-02T13:23:08;19.63;;;11.53;;
5167;SDS011;2603;48.918;8.980;2023-07-02T13:25:35;17.90;;;10.67;;
5167;SDS011;2603;48.918;8.980;2023-07-02T13:28:01;19.20;;;10.77;;
5167;SDS011;2603;48.918;8.980;2023-07-02T13:30:29;19.17;;;10.57;;
5167;SDS011;2603;48.918;8.980;2023-07-02T13:32:56;26.60;;;10.93;;
5167;SDS011;2603;48.918;8.980;2023-07-02T13:35:23;20.80;;;10.67;;
5167;SDS011;2603;48.918;8.980;2023-07-02T13:37:49;21.10;;;11.40;;
5167;SDS011;2603;48.918;8.980;2023-07-02T13:40:16;17.33;;;10.33;;
5167;SDS011;2603;48.918;8.980;2023-07-02T13:42:43;19.50;;;11.20;;
5167;SDS011;2603;48.918;8.980;2023-07-02T13:45:09;21.17;;;11.00;;
5167;SDS011;2603;48.918;8.980;2023-07-02T13:47:43;23.50;;;11.10;;
5167;SDS011;2603;48.918;8.980;2023-07-02T13:50:11;19.83;;;11.23;;
5167;SDS011;2603;48.918;8.980;2023-07-02T13:52:38;20.77;;;12.30;;
5167;SDS011;2603;48.918;8.980;2023-07-02T13:55:05;24.50;;;12.20;;
5167;SDS011;2603;48.918;8.980;2023-07-02T13:57:32;17.00;;;10.83;;
5167;SDS011;2603;48.918;8.980;2023-07-02T14:00:00;17.00;;;10.97;;
5167;SDS011;2603;48.918;8.980;2023-07-02T14:02:26;19.37;;;12.43;;
5167;SDS011;2603;48.918;8.980;2023-07-02T14:04:56;18.73;;;10.30;;
5167;SDS011;2603;48.918;8.980;2023-07-02T14:07:24;19.13;;;10.57;;
5167;SDS011;2603;48.918;8.980;2023-07-02T14:09:50;19.30;;;10.90;;
5167;SDS011;2603;48.918;8.980;2023-07-02T14:12:18;18.40;;;10.50;;
5167;SDS011;2603;48.918;8.980;2023-07-02T14:14:45;20.47;;;11.10;;
5167;SDS011;2603;48.918;8.980;2023-07-02T14:17:13;22.30;;;11.90;;
5167;SDS011;2603;48.918;8.980;2023-07-02T14:19:39;18.43;;;10.43;;
5167;SDS011;2603;48.918;8.980;2023-07-02T14:22:06;27.90;;;11.27;;
5167;SDS011;2603;48.918;8.980;2023-07-02T14:24:33;22.57;;;11.00;;
5167;SDS011;2603;48.918;8.980;2023-07-02T14:27:00;21.00;;;10.57;;
5167;SDS011;2603;48.918;8.980;2023-07-02T14:29:27;20.57;;;10.67;;
5167;SDS011;2603;48.918;8.980;2023-07-02T14:31:54;20.03;;;10.90;;
5167;SDS011;2603;48.918;8.980;2023-07-02T14:34:24;19.53;;;10.37;;
5167;SDS011;2603;48.918;8.980;2023-07-02T14:36:50;30.43;;;11.27;;
5167;SDS011;2603;48.918;8.980;2023-07-02T14:39:17;19.27;;;10.70;;
5167;SDS011;2603;48.918;8.980;2023-07-02T14:41:44;20.57;;;11.37;;
5167;SDS011;2603;48.918;8.980;2023-07-02T14:44:11;18.23;;;9.80;;
5167;SDS011;2603;48.918;8.980;2023-07-02T14:46:38;23.53;;;10.53;;
5167;SDS011;2603;48.918;8.980;2023-07-02T14:49:04;22.70;;;10.27;;
5167;SDS011;2603;48.918;8.980;2023-07-02T14:51:32;19.37;;;9.93;;
5167;SDS011;2603;48.918;8.980;2023-07-02T14:54:03;17.93;;;10.97;;
5167;SDS011;2603;48.918;8.980;2023-07-02T14:56:31;24.00;;;11.80;;
5167;SDS011;2603;48.918;8.980;2023-07-02T14:59:03;21.70;;;10.67;;
5167;SDS011;2603;48.918;8.980;2023-07-02T15:01:31;24.73;;;11.23;;
5167;SDS011;2603;48.918;8.980;2023-07-02T15:03:58;23.30;;;11.43;;
5167;SDS011;2603;48.918;8.980;2023-07-02T15:06:26;17.17;;;10.47;;